Portada
METAR-TAF:

METAR-TAF

Aeroports :

Curaçao, Antilles Neerlandeses

latitud: 12-12N, longitud: 068-58W, altitud: 9 m

Observació

L'informe es va fer fa 20 minuts, a les 09:00 UTC
Vent 12 kt del Est/Sud-Est
Temperatura 27°C
Humitat 84%
Pressió 1013 hPa
Visibilitat 10 km o més
Núvols disperses a una alçada de 1600 ft

METAR: TNCC 230900Z AUTO 12012KT 9999 SCT016 27/24 Q1013 NOSIG

Hora: 05:20 (09:20 UTC)

Pronòstic

L'informe es va fer fa 4 hores i 5 minuts, a les 05:15 UTC
Pronòstic vàlid del 23 a les 06 UTC al 24 a les 06 UTC
Vent 13 kt del Est/Sud-Est
Visibilitat 10 km o més
Núvols disperses a una alçada de 1800 ft
Probabilitat 30% :
Temporalment
l' 23 a les 08 UTC al 23 a les 14 UTC
Cel ennuvolat a una alçada de 1500 ft

TAF: TNCC 230515Z 2306/2406 11013KT 9999 SCT018 PROB30 TEMPO 2308/2314 BKN015

Observacions i pronòstics meteorològics de més de 4000 aeroports (METAR i TAF).

Les estacions disponibles són els punts grocs i vermells al mapa.

Posi el ratolí al punt desitjat per veure el nom de l'estació.

Feu clic per veure les observacions i els pronòstics meteorològics.

Per canviar el mapa: feu clic els botons verds amb una creu de color negre per apropar; al botó verd amb un guió per allunyar la imatge; o en les fletxes verdes per a mapes adjacents.


METAR-TAF: